createdAt,value
2019-01-17T00:01:55.948Z,138.57
2019-01-17T00:04:44.970Z,115.67
2019-01-17T00:07:38.177Z,124.33
2019-01-17T00:10:34.656Z,109.75
2019-01-17T00:13:34.976Z,98.40
2019-01-17T00:16:23.642Z,94.83
2019-01-17T00:19:15.623Z,94.40
2019-01-17T00:22:11.806Z,87.80
2019-01-17T00:25:11.113Z,77.75
2019-01-17T00:28:07.084Z,71.25
2019-01-17T00:31:03.068Z,75.00
2019-01-17T00:34:18.190Z,75.00
2019-01-17T00:37:01.543Z,76.20
2019-01-17T00:39:55.437Z,73.05
2019-01-17T00:42:55.011Z,71.72
2019-01-17T00:45:47.993Z,64.47
2019-01-17T00:48:36.108Z,70.50
2019-01-17T00:51:24.904Z,65.35
2019-01-17T00:54:21.769Z,70.55
2019-01-17T00:57:14.622Z,65.60
2019-01-17T01:00:12.100Z,76.17
2019-01-17T01:03:02.167Z,86.17
2019-01-17T01:06:01.077Z,81.32
2019-01-17T01:08:48.959Z,91.60
2019-01-17T01:11:37.992Z,83.58
2019-01-17T01:14:33.872Z,86.50
2019-01-17T01:17:26.922Z,97.92
2019-01-17T01:20:20.066Z,94.37
2019-01-17T01:23:18.450Z,93.97
2019-01-17T01:26:14.439Z,90.05
2019-01-17T01:29:13.594Z,97.53
2019-01-17T01:32:06.947Z,90.67
2019-01-17T01:34:54.666Z,82.08
2019-01-17T01:38:00.415Z,71.75
2019-01-17T01:40:48.909Z,63.25
2019-01-17T01:43:35.567Z,58.40
2019-01-17T01:46:17.893Z,52.78
2019-01-17T01:49:11.153Z,57.65
2019-01-17T01:52:00.007Z,57.05
2019-01-17T01:54:31.480Z,54.05
2019-01-17T01:57:02.944Z,58.05
2019-01-17T01:59:34.241Z,56.68
2019-01-17T02:02:05.730Z,59.20
2019-01-17T02:04:37.242Z,51.25
2019-01-17T02:07:08.802Z,62.73
2019-01-17T02:09:40.339Z,55.88
2019-01-17T02:12:11.703Z,57.60
2019-01-17T02:14:43.144Z,58.08
2019-01-17T02:17:15.040Z,56.75
2019-01-17T02:19:46.346Z,53.73
2019-01-17T02:22:18.081Z,56.08
2019-01-17T02:24:49.348Z,55.78
2019-01-17T02:27:20.687Z,67.62
2019-01-17T02:29:52.135Z,56.18
2019-01-17T02:32:23.616Z,58.92
2019-01-17T02:34:54.871Z,59.30
2019-01-17T02:37:26.204Z,54.83
2019-01-17T02:39:57.463Z,60.30
2019-01-17T02:42:29.510Z,67.95
2019-01-17T02:45:00.759Z,57.23
2019-01-17T02:47:32.242Z,70.72
2019-01-17T02:50:03.597Z,97.00
2019-01-17T02:52:35.110Z,98.90
2019-01-17T02:55:07.755Z,76.40
2019-01-17T02:57:39.258Z,72.72
2019-01-17T03:00:16.286Z,71.35
2019-01-17T03:02:47.780Z,52.43
2019-01-17T03:05:19.068Z,56.02
2019-01-17T03:07:50.755Z,51.05
2019-01-17T03:10:22.026Z,50.48
2019-01-17T03:12:53.573Z,53.98
2019-01-17T03:15:25.152Z,48.92
2019-01-17T03:17:56.625Z,45.73
2019-01-17T03:20:27.938Z,45.67
2019-01-17T03:22:59.550Z,43.55
2019-01-17T03:25:30.794Z,48.58
2019-01-17T03:28:03.194Z,41.95
2019-01-17T03:30:34.461Z,40.80
2019-01-17T03:33:05.868Z,40.85
2019-01-17T03:35:37.185Z,42.85
2019-01-17T03:38:09.581Z,38.92
2019-01-17T03:40:40.967Z,48.15
2019-01-17T03:43:13.364Z,40.15
2019-01-17T03:45:44.791Z,47.08
2019-01-17T03:48:16.221Z,47.78
2019-01-17T03:50:48.898Z,43.68
2019-01-17T03:53:20.479Z,45.20
2019-01-17T03:55:52.073Z,46.20
2019-01-17T03:58:23.608Z,46.35
2019-01-17T04:00:55.160Z,43.73
2019-01-17T04:03:26.602Z,47.78
2019-01-17T04:05:57.946Z,45.50
2019-01-17T04:08:30.374Z,48.80
2019-01-17T04:11:01.738Z,50.20
2019-01-17T04:13:33.091Z,50.58
2019-01-17T04:16:04.442Z,51.83
2019-01-17T04:18:35.895Z,53.00
2019-01-17T04:21:07.539Z,57.95
2019-01-17T04:23:39.076Z,69.55
2019-01-17T04:26:10.446Z,90.85
2019-01-17T04:28:41.837Z,90.55
2019-01-17T04:31:13.383Z,80.05
2019-01-17T04:33:44.955Z,70.62
2019-01-17T04:36:16.586Z,65.67
2019-01-17T04:38:47.993Z,61.05
2019-01-17T04:41:19.333Z,64.53
2019-01-17T04:43:50.795Z,71.60
2019-01-17T04:46:22.513Z,74.32
2019-01-17T04:48:54.172Z,68.92
2019-01-17T04:51:26.317Z,86.53
2019-01-17T04:53:58.575Z,101.95
2019-01-17T04:56:29.945Z,121.05
2019-01-17T04:59:01.372Z,128.30
2019-01-17T05:01:32.776Z,134.12
2019-01-17T05:04:04.666Z,121.25
2019-01-17T05:06:36.099Z,189.55
2019-01-17T05:09:09.079Z,171.53
2019-01-17T05:11:40.438Z,171.30
2019-01-17T05:14:11.850Z,115.80
2019-01-17T05:16:54.417Z,103.38
2019-01-17T05:19:26.078Z,88.07
2019-01-17T05:21:57.567Z,111.20
2019-01-17T05:24:29.062Z,110.75
2019-01-17T05:27:00.494Z,114.22
2019-01-17T05:29:33.108Z,100.27
2019-01-17T05:32:04.451Z,101.12
2019-01-17T05:34:39.584Z,122.30
2019-01-17T05:37:09.066Z,115.30
2019-01-17T05:39:40.643Z,105.72
2019-01-17T05:42:13.017Z,95.35
2019-01-17T05:48:08.401Z,105.47
2019-01-17T05:50:39.824Z,104.07
2019-01-17T05:53:11.167Z,87.92
2019-01-17T05:55:42.554Z,91.35
2019-01-17T05:58:13.864Z,77.82
2019-01-17T06:00:46.656Z,74.85
2019-01-17T06:03:17.974Z,78.07
2019-01-17T06:05:49.367Z,79.87
2019-01-17T06:08:20.742Z,95.22
2019-01-17T06:10:52.256Z,97.65
2019-01-17T06:13:23.826Z,101.65
2019-01-17T06:15:56.201Z,84.00
2019-01-17T06:18:27.732Z,89.00
2019-01-17T06:21:00.362Z,78.83
2019-01-17T06:23:31.903Z,72.47
2019-01-17T06:26:03.385Z,77.08
2019-01-17T06:28:34.822Z,88.25
2019-01-17T06:31:07.197Z,100.02
2019-01-17T06:33:38.558Z,93.67
2019-01-17T06:36:10.714Z,72.15
2019-01-17T06:38:42.282Z,66.17
2019-01-17T06:41:13.740Z,55.83
2019-01-17T06:43:45.205Z,57.25
2019-01-17T06:46:16.567Z,69.97
2019-01-17T06:48:47.997Z,63.58
2019-01-17T06:51:19.746Z,69.90
2019-01-17T06:53:52.095Z,68.83
2019-01-17T06:56:23.393Z,69.65
2019-01-17T06:58:55.942Z,72.20
2019-01-17T07:01:27.478Z,70.00
2019-01-17T07:03:58.705Z,74.82
2019-01-17T07:06:30.215Z,78.85
2019-01-17T07:09:01.465Z,75.93
2019-01-17T07:11:34.517Z,68.60
2019-01-17T07:14:05.886Z,72.27
2019-01-17T07:16:37.305Z,83.20
2019-01-17T07:19:08.747Z,59.05
2019-01-17T07:21:40.254Z,54.83
2019-01-17T07:24:11.626Z,55.10
2019-01-17T07:26:43.265Z,52.70
2019-01-17T07:29:14.717Z,56.33
2019-01-17T07:31:46.145Z,56.07
2019-01-17T07:34:17.606Z,59.53
2019-01-17T07:36:49.107Z,56.60
2019-01-17T07:39:20.741Z,51.33
2019-01-17T07:41:52.178Z,41.60
2019-01-17T07:44:23.489Z,42.07
2019-01-17T07:46:54.987Z,42.87
2019-01-17T07:49:26.317Z,45.93
2019-01-17T07:52:03.289Z,46.10
2019-01-17T07:54:37.625Z,43.80
2019-01-17T07:57:09.001Z,47.70
2019-01-17T07:59:40.301Z,45.67
2019-01-17T08:02:11.987Z,64.37
2019-01-17T08:04:43.634Z,53.53
2019-01-17T08:07:15.054Z,47.87
2019-01-17T08:09:46.310Z,50.60
2019-01-17T08:12:17.588Z,47.07
2019-01-17T08:14:49.182Z,54.50
2019-01-17T08:17:21.650Z,53.47
2019-01-17T08:19:53.268Z,67.90
2019-01-17T08:22:24.695Z,59.17
2019-01-17T08:24:56.092Z,59.73
2019-01-17T08:27:27.679Z,153.67
2019-01-17T08:29:59.182Z,62.53
2019-01-17T08:32:31.070Z,86.40
2019-01-17T08:35:02.635Z,77.07
2019-01-17T08:37:33.941Z,70.50
2019-01-17T08:40:07.096Z,87.20
2019-01-17T08:42:38.370Z,109.97
2019-01-17T08:45:10.543Z,63.40
2019-01-17T08:47:41.945Z,46.70
2019-01-17T08:50:13.963Z,44.40
2019-01-17T08:52:45.273Z,45.93
2019-01-17T08:55:16.682Z,56.00
2019-01-17T08:57:47.963Z,41.40
2019-01-17T09:00:21.001Z,41.53
2019-01-17T09:02:52.287Z,46.80
2019-01-17T09:05:24.829Z,41.03
2019-01-17T09:07:56.387Z,44.63
2019-01-17T09:10:30.163Z,46.60
2019-01-17T09:13:01.260Z,42.60
2019-01-17T09:15:34.527Z,43.37
2019-01-17T09:18:06.078Z,45.80
2019-01-17T09:20:37.606Z,43.97
2019-01-17T09:23:08.848Z,48.37
2019-01-17T09:25:40.378Z,47.70
2019-01-17T09:28:11.480Z,43.83
2019-01-17T09:30:42.829Z,41.90
2019-01-17T09:33:14.326Z,51.97
2019-01-17T09:35:45.684Z,42.57
2019-01-17T09:38:17.613Z,52.30
2019-01-17T09:40:49.026Z,44.53
2019-01-17T09:43:21.188Z,42.90
2019-01-17T09:45:52.641Z,51.00
2019-01-17T09:48:23.906Z,73.50
2019-01-17T09:51:14.025Z,46.17
2019-01-17T09:53:45.464Z,52.67
2019-01-17T09:56:16.762Z,46.93
2019-01-17T09:58:48.188Z,45.70
2019-01-17T10:01:19.571Z,46.57
2019-01-17T10:03:51.000Z,35.20
2019-01-17T10:06:23.011Z,31.83
2019-01-17T10:08:54.526Z,46.87
2019-01-17T10:11:26.004Z,31.03
2019-01-17T10:13:58.307Z,37.20
2019-01-17T10:17:03.662Z,34.00
2019-01-17T10:20:10.780Z,54.03
2019-01-17T10:23:18.334Z,35.33
2019-01-17T10:26:32.713Z,48.57
2019-01-17T10:29:35.030Z,39.13
2019-01-17T10:32:47.628Z,38.70
2019-01-17T10:35:50.359Z,47.90
2019-01-17T10:38:46.315Z,53.83
2019-01-17T10:41:48.524Z,39.00
2019-01-17T10:45:06.497Z,35.33
2019-01-17T10:48:00.714Z,44.43
2019-01-17T10:51:21.623Z,48.43
2019-01-17T10:54:21.359Z,43.90
2019-01-17T10:57:28.767Z,37.70
2019-01-17T11:00:22.545Z,41.17
2019-01-17T11:03:28.699Z,42.77
2019-01-17T11:06:54.925Z,42.53
2019-01-17T11:10:05.060Z,36.30
2019-01-17T11:13:13.991Z,38.67
2019-01-17T11:16:24.560Z,43.40
2019-01-17T11:19:36.435Z,36.33
2019-01-17T11:22:38.850Z,37.17
2019-01-17T11:26:01.934Z,36.20
2019-01-17T11:28:41.073Z,40.70
2019-01-17T11:31:55.911Z,73.57
2019-01-17T11:34:57.658Z,36.53
2019-01-17T11:38:02.880Z,39.80
2019-01-17T11:41:29.048Z,42.07
2019-01-17T11:44:40.529Z,49.03
2019-01-17T11:47:38.564Z,49.33
2019-01-17T11:50:36.543Z,55.40
2019-01-17T11:54:02.792Z,40.27
2019-01-17T11:57:09.271Z,34.27
2019-01-17T12:00:21.330Z,47.00
2019-01-17T12:03:32.325Z,37.10
2019-01-17T12:06:04.584Z,41.73
2019-01-17T12:08:35.975Z,47.20
2019-01-17T12:11:07.385Z,38.77
2019-01-17T12:13:38.753Z,52.67
2019-01-17T12:16:10.312Z,52.87
2019-01-17T12:18:41.619Z,42.70
2019-01-17T12:21:12.983Z,41.13
2019-01-17T12:23:44.272Z,40.53
2019-01-17T12:26:15.626Z,43.70
2019-01-17T12:28:46.925Z,47.67
2019-01-17T12:31:18.462Z,60.50
2019-01-17T12:33:49.733Z,58.27
2019-01-17T12:36:21.263Z,42.97
2019-01-17T12:38:52.838Z,43.43
2019-01-17T12:41:24.344Z,42.97
2019-01-17T12:43:56.807Z,45.60
2019-01-17T12:46:29.156Z,50.20
2019-01-17T12:49:00.487Z,47.40
2019-01-17T12:51:33.389Z,48.33
2019-01-17T12:54:05.026Z,45.87
2019-01-17T12:56:36.553Z,59.80
2019-01-17T12:59:07.804Z,61.23
2019-01-17T13:01:39.244Z,61.13
2019-01-17T13:04:10.531Z,50.30
2019-01-17T13:06:41.971Z,49.60
2019-01-17T13:09:13.393Z,56.60
2019-01-17T13:11:44.917Z,60.13
2019-01-17T13:14:16.312Z,53.53
2019-01-17T13:16:48.456Z,48.13
2019-01-17T13:19:19.673Z,71.73
2019-01-17T13:21:51.194Z,57.60
2019-01-17T13:24:22.650Z,64.97
2019-01-17T13:27:00.578Z,100.80
2019-01-17T13:29:27.257Z,76.20
2019-01-17T13:31:59.002Z,116.23
2019-01-17T13:34:30.272Z,71.70
2019-01-17T13:37:01.807Z,51.07
2019-01-17T13:39:33.384Z,45.67
2019-01-17T13:42:05.859Z,51.53
2019-01-17T13:44:37.341Z,51.60
2019-01-17T13:47:08.933Z,48.10
2019-01-17T13:49:40.359Z,56.50
2019-01-17T13:52:11.851Z,67.57
2019-01-17T13:54:44.296Z,56.37
2019-01-17T13:57:15.941Z,50.97
2019-01-17T13:59:47.079Z,52.60
2019-01-17T14:02:18.718Z,56.50
2019-01-17T14:04:50.093Z,51.97
2019-01-17T14:07:21.781Z,50.33
2019-01-17T14:09:54.315Z,65.03
2019-01-17T14:12:25.889Z,60.60
2019-01-17T14:14:57.175Z,57.03
2019-01-17T14:17:29.576Z,62.00
2019-01-17T14:20:01.284Z,54.83
2019-01-17T14:22:32.874Z,53.63
2019-01-17T14:25:04.486Z,67.23
2019-01-17T14:27:35.835Z,59.73
2019-01-17T14:30:11.572Z,77.63
2019-01-17T14:32:44.128Z,76.60
2019-01-17T14:35:34.264Z,77.70
2019-01-17T14:38:05.790Z,101.53
2019-01-17T14:40:37.006Z,134.23
2019-01-17T14:43:08.171Z,126.50
2019-01-17T14:45:39.445Z,123.50
2019-01-17T14:48:10.882Z,88.90
2019-01-17T14:50:42.152Z,70.70
2019-01-17T14:53:13.568Z,65.23
2019-01-17T14:55:45.016Z,73.33
2019-01-17T14:58:16.555Z,73.27
2019-01-17T15:00:47.926Z,83.03
2019-01-17T15:03:19.339Z,87.90
2019-01-17T15:05:50.829Z,81.60
2019-01-17T15:08:22.390Z,93.00
2019-01-17T15:10:53.539Z,106.22
2019-01-17T15:13:24.889Z,114.03
2019-01-17T15:15:56.214Z,117.42
2019-01-17T15:18:27.804Z,101.00
2019-01-17T15:20:59.065Z,120.50
2019-01-17T15:23:30.944Z,110.35
2019-01-17T15:26:02.387Z,91.22
2019-01-17T15:28:33.741Z,82.90
2019-01-17T15:31:05.190Z,82.33
2019-01-17T15:33:37.246Z,89.95
2019-01-17T15:36:08.605Z,76.87
2019-01-17T15:38:40.202Z,84.40
2019-01-17T15:41:30.201Z,85.40
2019-01-17T15:44:01.642Z,81.37
2019-01-17T15:46:32.901Z,80.10
2019-01-17T15:49:08.321Z,79.47
2019-01-17T15:51:39.651Z,78.65
2019-01-17T15:54:11.125Z,84.62
2019-01-17T15:56:42.496Z,84.47
2019-01-17T15:59:13.847Z,91.50
2019-01-17T16:01:44.983Z,87.88
2019-01-17T16:04:17.926Z,87.05
2019-01-17T16:06:49.423Z,74.17
2019-01-17T16:09:20.817Z,89.03
2019-01-17T16:11:52.163Z,93.67
2019-01-17T16:14:25.548Z,81.57
2019-01-17T16:16:57.858Z,88.00
2019-01-17T16:19:29.974Z,81.60
2019-01-17T16:22:01.465Z,81.50
2019-01-17T16:24:32.686Z,74.82
2019-01-17T16:27:04.400Z,77.70
2019-01-17T16:29:35.743Z,78.12
2019-01-17T16:32:07.067Z,86.78
2019-01-17T16:34:39.576Z,77.85
2019-01-17T16:37:10.928Z,74.62
2019-01-17T16:39:42.345Z,76.53
2019-01-17T16:42:13.746Z,78.45
2019-01-17T16:44:46.096Z,68.57
2019-01-17T16:47:18.356Z,69.35
2019-01-17T16:49:50.017Z,72.05
2019-01-17T16:52:21.347Z,67.60
2019-01-17T16:54:52.802Z,70.05
2019-01-17T16:57:24.053Z,72.35
2019-01-17T16:59:55.303Z,77.78
2019-01-17T17:02:26.684Z,76.75
2019-01-17T17:04:58.094Z,84.32
2019-01-17T17:07:29.646Z,97.42
2019-01-17T17:10:01.105Z,97.53
2019-01-17T17:12:32.469Z,90.57
2019-01-17T17:15:03.984Z,83.85
2019-01-17T17:17:46.994Z,86.67
2019-01-17T17:20:20.445Z,94.85
2019-01-17T17:22:51.794Z,93.07
2019-01-17T17:25:23.341Z,81.08
2019-01-17T17:27:55.659Z,80.77
2019-01-17T17:30:28.979Z,75.70
2019-01-17T17:33:00.359Z,75.05
2019-01-17T17:35:31.743Z,74.20
2019-01-17T17:38:03.156Z,75.20
2019-01-17T17:40:34.431Z,80.67
2019-01-17T17:43:05.896Z,74.62
2019-01-17T17:45:38.304Z,79.65
2019-01-17T17:48:10.366Z,77.85
2019-01-17T17:50:41.924Z,87.53
2019-01-17T17:53:13.273Z,76.92
2019-01-17T17:55:44.546Z,75.97
2019-01-17T17:58:15.690Z,77.05
2019-01-17T18:00:59.469Z,69.17
2019-01-17T18:03:30.899Z,77.97
2019-01-17T18:06:04.117Z,80.77
2019-01-17T18:08:35.599Z,86.70
2019-01-17T18:11:07.013Z,78.78
2019-01-17T18:13:38.676Z,86.30
2019-01-17T18:16:11.224Z,82.00
2019-01-17T18:18:42.889Z,90.72
2019-01-17T18:21:14.545Z,83.17
2019-01-17T18:23:49.915Z,87.97
2019-01-17T18:26:21.330Z,87.90
2019-01-17T18:28:52.721Z,82.88
2019-01-17T18:31:25.503Z,90.77
2019-01-17T18:33:56.800Z,89.65
2019-01-17T18:36:35.067Z,84.03
2019-01-17T18:39:12.470Z,78.22
2019-01-17T18:41:54.299Z,83.45
2019-01-17T18:44:26.612Z,78.47
2019-01-17T18:46:57.951Z,78.25
2019-01-17T18:49:29.333Z,68.42
2019-01-17T18:52:02.144Z,61.42
2019-01-17T18:54:34.178Z,68.33
2019-01-17T18:57:06.482Z,74.55
2019-01-17T18:59:37.977Z,71.00
2019-01-17T19:02:09.467Z,100.62
2019-01-17T19:04:40.838Z,104.55
2019-01-17T19:07:11.990Z,109.48
2019-01-17T19:09:43.449Z,120.72
2019-01-17T19:12:14.950Z,104.20
2019-01-17T19:14:46.254Z,86.35
2019-01-17T19:17:17.837Z,80.25
2019-01-17T19:19:49.263Z,79.70
2019-01-17T19:22:20.682Z,86.90
2019-01-17T19:24:52.148Z,84.13
2019-01-17T19:27:23.497Z,81.08
2019-01-17T19:29:55.073Z,77.53
2019-01-17T19:32:26.710Z,70.95
2019-01-17T19:34:58.373Z,71.67
2019-01-17T19:37:29.931Z,82.10
2019-01-17T19:40:01.422Z,74.72
2019-01-17T19:42:32.923Z,75.92
2019-01-17T19:45:05.549Z,79.55
2019-01-17T19:47:38.019Z,77.32
2019-01-17T19:50:17.615Z,77.55
2019-01-17T19:52:49.466Z,74.37
2019-01-17T19:55:20.785Z,92.10
2019-01-17T19:57:52.358Z,76.90
2019-01-17T20:00:24.256Z,75.90
2019-01-17T20:02:55.831Z,80.35
2019-01-17T20:05:28.382Z,75.83
2019-01-17T20:07:59.870Z,70.60
2019-01-17T20:10:33.433Z,95.03
2019-01-17T20:13:05.979Z,136.95
2019-01-17T20:15:37.548Z,99.70
2019-01-17T20:18:09.594Z,73.65
2019-01-17T20:20:41.173Z,89.72
2019-01-17T20:23:12.982Z,101.50
2019-01-17T20:25:44.518Z,86.53
2019-01-17T20:28:15.847Z,86.42
2019-01-17T20:30:47.888Z,84.55
2019-01-17T20:33:19.572Z,82.30
2019-01-17T20:35:50.978Z,74.75
2019-01-17T20:38:22.411Z,67.62
2019-01-17T20:40:58.198Z,70.40
2019-01-17T20:43:27.453Z,63.85
2019-01-17T20:45:58.954Z,66.22
2019-01-17T20:48:30.357Z,72.00
2019-01-17T20:51:01.743Z,58.70
2019-01-17T20:53:33.159Z,59.98
2019-01-17T20:56:04.690Z,58.92
2019-01-17T20:58:42.169Z,63.25
2019-01-17T21:01:55.845Z,66.05
2019-01-17T21:04:27.179Z,89.58
2019-01-17T21:06:58.692Z,94.00
2019-01-17T21:09:29.995Z,92.92
2019-01-17T21:12:01.397Z,87.05
2019-01-17T21:14:32.769Z,86.95
2019-01-17T21:17:04.055Z,74.45
2019-01-17T21:19:35.380Z,67.70
2019-01-17T21:22:06.731Z,61.15
2019-01-17T21:24:38.462Z,54.38
2019-01-17T21:27:09.700Z,54.63
2019-01-17T21:29:41.050Z,60.20
2019-01-17T21:32:12.456Z,55.05
2019-01-17T21:34:43.906Z,47.40
2019-01-17T21:37:15.297Z,47.00
2019-01-17T21:39:46.603Z,51.45
2019-01-17T21:42:17.852Z,49.08
2019-01-17T21:44:49.356Z,48.65
2019-01-17T21:47:20.779Z,44.95
2019-01-17T21:49:52.231Z,47.95
2019-01-17T21:52:23.530Z,46.13
2019-01-17T21:54:56.093Z,49.67
2019-01-17T21:57:27.421Z,48.65
2019-01-17T21:59:58.886Z,50.78
2019-01-17T22:02:30.175Z,50.52
2019-01-17T22:05:01.444Z,51.95
2019-01-17T22:07:34.186Z,51.30
2019-01-17T22:10:06.569Z,52.33
2019-01-17T22:12:37.839Z,51.90
2019-01-17T22:15:11.972Z,46.25
2019-01-17T22:17:44.436Z,51.42
2019-01-17T22:20:16.039Z,50.58
2019-01-17T22:22:47.467Z,43.98
2019-01-17T22:25:20.792Z,49.73
2019-01-17T22:27:52.568Z,49.03
2019-01-17T22:30:26.249Z,43.38
2019-01-17T22:32:57.619Z,44.77
2019-01-17T22:35:29.080Z,45.85
2019-01-17T22:38:01.219Z,53.05
2019-01-17T22:40:32.805Z,43.98
2019-01-17T22:43:04.087Z,43.95
2019-01-17T22:45:36.402Z,41.85
2019-01-17T22:48:07.812Z,40.73
2019-01-17T22:50:39.999Z,38.88
2019-01-17T22:53:11.170Z,39.67
2019-01-17T22:55:43.806Z,38.08
2019-01-17T22:58:15.012Z,39.05
2019-01-17T23:01:21.758Z,36.10
2019-01-17T23:03:54.285Z,39.20
2019-01-17T23:06:25.751Z,39.50
2019-01-17T23:08:57.027Z,40.52
2019-01-17T23:11:39.934Z,42.08
2019-01-17T23:14:11.478Z,40.78
2019-01-17T23:16:42.938Z,35.80
2019-01-17T23:19:14.405Z,39.65
2019-01-17T23:21:45.819Z,36.10
2019-01-17T23:24:17.615Z,37.38
2019-01-17T23:26:49.345Z,35.52
2019-01-17T23:29:20.775Z,38.70
2019-01-17T23:31:52.239Z,40.35
2019-01-17T23:34:23.721Z,37.05
2019-01-17T23:36:56.297Z,39.40
2019-01-17T23:39:27.683Z,34.73
2019-01-17T23:42:00.267Z,36.28
2019-01-17T23:44:32.084Z,37.33
2019-01-17T23:47:03.547Z,36.83
2019-01-17T23:49:35.037Z,37.30
2019-01-17T23:52:06.521Z,38.73
2019-01-17T23:54:38.326Z,38.10
2019-01-17T23:57:09.646Z,37.15
2019-01-17T23:59:41.140Z,38.60
